Forks, WA (98331)

1:50 PM PST on February 20, 2017 (GMT -0800)
MFKSWA | | Change Station

Elev 311 ft 47.97 °N, 124.40 °W | Updated 45 minutes ago

Rain
Rain
47.0 °F
Feels Like 47 °F
N
1.0
Wind Variable Wind from West

Today
High -- | Low -- °F
--% Chance of Precip.
Yesterday
High -- | Low -- °F
Precip. -- in
Pressure 29.59 in
Visibility 10.0 miles
Clouds Scattered Clouds 1500 ft
Mostly Cloudy 2400 ft
Overcast 9000 ft
Windchill 47 °F
Dew Point 43 °F
Humidity 83%
Rainfall 0.20 in
Snow Depth Not available.
7:14 AM 5:48 PM
Waning Crescent, 31% visible
SPECI KUIL 202100Z AUTO 30004KT 10SM SCT015 BKN024 OVC090 08/05 A2959 RMK AO2 T00830050
Pressure 29.59 in
Visibility 10.0 miles
Clouds Scattered Clouds 1500 ft
Mostly Cloudy 2400 ft
Overcast 9000 ft
Windchill 47 °F
Dew Point 43 °F
Humidity 83%
Rainfall 0.20 in
Snow Depth Not available.
7:14 AM 5:48 PM
Waning Crescent, 31% visible
SPECI KUIL 202100Z AUTO 30004KT 10SM SCT015 BKN024 OVC090 08/05 A2959 RMK AO2 T00830050

Get Your Daily Forecast Email!

Thanks for signing up!

Be on the lookout for a verification email in your inbox.

You'll start receiving the daily forecast at 8 AM.

×

10-Day Weather Forecast

Almanac

Astronomy

Feb. 20, 2017 Rise Set
Actual Time
Civil Twilight
Nautical Twilight
Astronomical Twilight
Moon
Length of Visible Light
Length of Day
Tomorrow will be .
, % of the Moon is Illuminated

Today's Extremes

State Highs State Lows

Community

WunderPhotos

Upload Photos

1,962,540 photos uploaded!

WunderBlog® & News

Nearby

Air Quality

  Air Quality AQ Index Pollutant
Not available.

Snow Depth

Station Depth Elevation

Earthquake Activity

City Distance Mag. Time & Date
Minimum magnitude displayed is 2.5.

Coastal Water Temperatures

Place Temperature

Stations

Nearby Weather Stations

Station Location Temp. Windchill Dew Point Humidity Wind Precip. Elev Updated Type
                   

Watches & Warnings

There are currently no watches in effect.